PAF5320 RPUF-RPVM
Flight info
| Callsign | PAF5320 |
|---|---|
| Flight time | N/A |
| Altitude | 11000 |
| Route | MIA B462 MASBA W8 BATAY |
| Aircraft | C208/L-SDFGR/C |
Departure
| Time | 2026-05-05 09:05 |
|---|---|
| Airport | Basa Air Base (RPUF) |
Arrival
| Time | N/A |
|---|---|
| Airport | Mactan Cebu International Airport (RPVM) |
| Time | Latitude | Longitude | Altitude | Speed | Heading |
|---|---|---|---|---|---|
| 2026-05-05 08:30 | 14.97835 | 120.49241 | 171 ft | 0 kts | 118° |
| 2026-05-05 09:02 | 14.97819 | 120.49242 | 170 ft | 8 kts | 223° |
| 2026-05-05 09:02 | 14.97772 | 120.49151 | 171 ft | 21 kts | 236° |
| 2026-05-05 09:03 | 14.97640 | 120.49046 | 172 ft | 25 kts | 208° |
| 2026-05-05 09:03 | 14.97558 | 120.48885 | 171 ft | 21 kts | 297° |
| 2026-05-05 09:03 | 14.97602 | 120.48797 | 173 ft | 20 kts | 297° |
| 2026-05-05 09:03 | 14.97668 | 120.48742 | 175 ft | 11 kts | 20° |
| 2026-05-05 09:04 | 14.97707 | 120.48760 | 174 ft | 18 kts | 27° |
| 2026-05-05 09:04 | 14.97977 | 120.48902 | 171 ft | 66 kts | 26° |
| 2026-05-05 09:04 | 14.98416 | 120.49123 | 357 ft | 73 kts | 32° |
| 2026-05-05 09:04 | 14.98871 | 120.49382 | 586 ft | 74 kts | 31° |
| 2026-05-05 09:05 | 14.99328 | 120.49620 | 795 ft | 74 kts | 33° |
| 2026-05-05 09:05 | 14.99788 | 120.49874 | 997 ft | 78 kts | 30° |
| 2026-05-05 09:05 | 14.99957 | 120.49948 | 1084 ft | 79 kts | 29° |
| 2026-05-05 09:06 | 15.01177 | 120.51238 | 1607 ft | 113 kts | 89° |
| 2026-05-05 09:06 | 15.00996 | 120.52025 | 1949 ft | 111 kts | 107° |
| 2026-05-05 09:06 | 15.00663 | 120.52736 | 2279 ft | 107 kts | 115° |
| 2026-05-05 09:06 | 15.00121 | 120.53257 | 2501 ft | 114 kts | 150° |
| 2026-05-05 09:07 | 14.99298 | 120.53314 | 2760 ft | 131 kts | 187° |
| 2026-05-05 09:07 | 14.98462 | 120.52874 | 3065 ft | 137 kts | 207° |
| 2026-05-05 09:07 | 14.97655 | 120.52314 | 3316 ft | 142 kts | 211° |
| 2026-05-05 09:07 | 14.96813 | 120.51811 | 3577 ft | 136 kts | 200° |
| 2026-05-05 09:08 | 14.95944 | 120.51767 | 3737 ft | 126 kts | 151° |
| 2026-05-05 09:08 | 14.95335 | 120.52396 | 3861 ft | 126 kts | 110° |
| 2026-05-05 09:08 | 14.95290 | 120.53273 | 4114 ft | 127 kts | 68° |
| 2026-05-05 09:08 | 14.95852 | 120.53978 | 4483 ft | 130 kts | 40° |
| 2026-05-05 09:09 | 14.96729 | 120.54237 | 4814 ft | 137 kts | 359° |
| 2026-05-05 09:09 | 14.97592 | 120.53814 | 5137 ft | 145 kts | 311° |
| 2026-05-05 09:09 | 14.97686 | 120.52828 | 5442 ft | 149 kts | 238° |
| 2026-05-05 09:09 | 14.96851 | 120.52323 | 5711 ft | 144 kts | 175° |
| 2026-05-05 09:10 | 14.96025 | 120.52808 | 5851 ft | 139 kts | 118° |
| 2026-05-05 09:10 | 14.95936 | 120.53773 | 6000 ft | 139 kts | 78° |
| 2026-05-05 09:10 | 14.96307 | 120.54693 | 6204 ft | 139 kts | 61° |
| 2026-05-05 09:10 | 14.96534 | 120.55594 | 6528 ft | 132 kts | 104° |
| 2026-05-05 09:11 | 14.96107 | 120.56435 | 6807 ft | 131 kts | 104° |
| 2026-05-05 09:11 | 14.95980 | 120.57357 | 7022 ft | 138 kts | 99° |
| 2026-05-05 09:11 | 14.95707 | 120.58366 | 7035 ft | 152 kts | 107° |
| 2026-05-05 09:11 | 14.95337 | 120.59427 | 7024 ft | 156 kts | 108° |
| 2026-05-05 09:12 | 14.94978 | 120.60437 | 7021 ft | 148 kts | 109° |
| 2026-05-05 09:12 | 14.94614 | 120.61411 | 7010 ft | 142 kts | 109° |
| 2026-05-05 09:12 | 14.94258 | 120.62355 | 7018 ft | 141 kts | 110° |
| 2026-05-05 09:12 | 14.93917 | 120.63308 | 7019 ft | 141 kts | 108° |
| 2026-05-05 09:13 | 14.93596 | 120.64266 | 7018 ft | 142 kts | 107° |
| 2026-05-05 09:13 | 14.93267 | 120.65238 | 7015 ft | 143 kts | 107° |
| 2026-05-05 09:13 | 14.92942 | 120.66205 | 7014 ft | 142 kts | 107° |
| 2026-05-05 09:13 | 14.92624 | 120.67171 | 7021 ft | 143 kts | 106° |
| 2026-05-05 09:14 | 14.92260 | 120.68126 | 7011 ft | 145 kts | 124° |
| 2026-05-05 09:14 | 14.91466 | 120.68790 | 7012 ft | 148 kts | 140° |
| 2026-05-05 09:14 | 14.90700 | 120.69501 | 7012 ft | 148 kts | 132° |
| 2026-05-05 09:14 | 14.89956 | 120.70245 | 7014 ft | 148 kts | 134° |